Time;durP1;ratioP1;P1;durP2;ratioP2;P2;SDS_P1;SDS_P2;PMS_P1;PMS_P2;Temp;Humidity;BMP_temperature;BMP_pressure;BME280_temperature;BME280_humidity;BME280_pressure;Samples;Min_cycle;Max_cycle;Signal;HPM_P1;HPM_P2
2020/12/17 00:00:49;;;;;;;1.77;1.67;;;8.10;99.90;;;;;;5074401;28;20657;-84
2020/12/17 00:03:14;;;;;;;0.70;0.70;;;8.10;99.90;;;;;;5073654;28;20188;-84
2020/12/17 00:05:40;;;;;;;1.47;1.37;;;7.90;99.90;;;;;;5073365;28;20193;-84
2020/12/17 00:08:06;;;;;;;1.00;1.00;;;7.80;99.90;;;;;;5084507;28;20217;-83
2020/12/17 00:10:31;;;;;;;2.63;0.57;;;7.80;99.90;;;;;;5072671;28;20192;-84
2020/12/17 00:12:57;;;;;;;0.77;0.77;;;7.80;99.90;;;;;;5074011;28;20216;-84
2020/12/17 00:15:22;;;;;;;1.83;1.73;;;7.60;99.90;;;;;;5073227;28;20590;-84
2020/12/17 00:17:52;;;;;;;3.60;1.13;;;7.70;99.90;;;;;;5072354;28;20207;-84
2020/12/17 00:20:23;;;;;;;1.50;0.60;;;7.60;99.90;;;;;;5072598;28;20205;-84
2020/12/17 00:22:49;;;;;;;0.93;0.43;;;7.70;99.90;;;;;;5081289;28;20709;-83
2020/12/17 00:25:17;;;;;;;1.27;0.67;;;7.50;99.90;;;;;;5074221;28;20189;-84
2020/12/17 00:27:43;;;;;;;1.93;1.83;;;7.60;99.90;;;;;;5074255;28;20217;-84
2020/12/17 00:30:11;;;;;;;1.23;0.80;;;7.70;99.90;;;;;;5073168;28;20189;-84
2020/12/17 00:32:43;;;;;;;2.10;0.70;;;7.60;99.90;;;;;;5072373;28;20234;-84
2020/12/17 00:35:10;;;;;;;3.73;1.10;;;7.50;99.90;;;;;;5065734;28;20188;-84
2020/12/17 00:37:36;;;;;;;0.87;0.73;;;7.50;99.90;;;;;;5074323;28;20189;-84
2020/12/17 00:40:05;;;;;;;1.07;0.70;;;7.60;99.90;;;;;;5072319;28;20272;-84
2020/12/17 00:42:31;;;;;;;0.93;0.90;;;7.70;99.90;;;;;;5072000;28;20212;-83
2020/12/17 00:44:56;;;;;;;0.60;0.43;;;7.60;99.90;;;;;;5072084;28;20192;-84
2020/12/17 00:47:27;;;;;;;1.67;1.13;;;7.80;99.90;;;;;;5073657;28;20204;-83
2020/12/17 00:49:53;;;;;;;1.23;1.13;;;7.80;99.90;;;;;;5072208;28;20194;-83
2020/12/17 00:52:22;;;;;;;0.67;0.67;;;7.90;99.90;;;;;;5073958;28;20204;-84
2020/12/17 00:54:47;;;;;;;0.50;0.50;;;7.70;99.90;;;;;;5072246;28;20231;-84
2020/12/17 00:57:13;;;;;;;1.00;0.90;;;7.50;99.90;;;;;;5071613;28;20189;-84
2020/12/17 00:59:38;;;;;;;1.07;0.63;;;7.40;99.90;;;;;;5073154;28;20271;-84
2020/12/17 01:02:04;;;;;;;0.60;0.60;;;7.40;99.90;;;;;;5080523;28;20658;-84
2020/12/17 01:04:30;;;;;;;0.27;0.27;;;7.30;99.90;;;;;;5072964;28;20178;-83
2020/12/17 01:06:55;;;;;;;0.77;0.77;;;7.30;99.90;;;;;;5078120;28;20205;-84
2020/12/17 01:09:21;;;;;;;3.17;0.57;;;7.00;99.90;;;;;;5078642;28;20180;-85
2020/12/17 01:11:46;;;;;;;1.70;1.33;;;6.90;99.90;;;;;;5087033;28;20706;-84
2020/12/17 01:14:12;;;;;;;1.10;1.00;;;7.20;99.90;;;;;;5071681;28;20191;-83
2020/12/17 01:16:37;;;;;;;0.50;0.50;;;7.30;99.90;;;;;;5071340;28;20272;-84
2020/12/17 01:19:03;;;;;;;0.30;0.30;;;7.30;99.90;;;;;;5069615;28;20219;-82
2020/12/17 01:21:28;;;;;;;1.60;0.93;;;7.10;99.90;;;;;;5074224;28;20216;-83
2020/12/17 01:23:54;;;;;;;1.50;1.30;;;6.80;99.90;;;;;;5076839;28;20183;-84
2020/12/17 01:26:19;;;;;;;0.20;0.20;;;6.70;99.90;;;;;;5073001;28;20236;-84
2020/12/17 01:28:45;;;;;;;1.60;1.03;;;6.80;99.90;;;;;;5071276;28;20265;-84
2020/12/17 01:31:12;;;;;;;0.43;0.43;;;6.80;99.90;;;;;;5065539;28;20193;-83
2020/12/17 01:33:39;;;;;;;0.63;0.57;;;6.70;99.90;;;;;;5067957;28;20178;-84
2020/12/17 01:36:06;;;;;;;1.50;0.87;;;6.80;99.90;;;;;;5072717;28;20215;-83
2020/12/17 01:38:39;;;;;;;3.27;0.57;;;6.70;99.90;;;;;;5071563;28;20183;-84
2020/12/17 01:41:06;;;;;;;0.80;0.80;;;6.70;99.90;;;;;;5071324;28;20195;-85
2020/12/17 01:43:40;;;;;;;0.27;0.27;;;6.50;99.90;;;;;;5071359;28;20549;-83
2020/12/17 01:46:07;;;;;;;1.73;1.63;;;6.50;99.90;;;;;;5071929;28;20702;-84
2020/12/17 01:48:33;;;;;;;0.30;0.30;;;6.50;99.90;;;;;;5072930;28;20181;-84
2020/12/17 01:51:00;;;;;;;2.73;0.57;;;6.50;99.90;;;;;;5071220;28;20675;-85
2020/12/17 01:53:26;;;;;;;2.20;1.00;;;6.60;99.90;;;;;;5069811;28;20846;-83
2020/12/17 01:56:00;;;;;;;0.77;0.73;;;6.60;99.90;;;;;;5071212;28;20182;-84
2020/12/17 01:58:31;;;;;;;1.60;1.50;;;6.70;99.90;;;;;;5059704;28;20204;-83
2020/12/17 02:00:58;;;;;;;4.23;0.93;;;6.70;99.90;;;;;;5060911;28;20810;-84
2020/12/17 02:03:24;;;;;;;0.30;0.30;;;6.70;99.90;;;;;;5069521;28;20185;-84
2020/12/17 02:05:50;;;;;;;0.40;0.40;;;6.60;99.90;;;;;;5071571;28;20648;-83
2020/12/17 02:08:18;;;;;;;0.87;0.60;;;6.80;99.90;;;;;;5082760;28;20212;-84
2020/12/17 02:10:44;;;;;;;0.23;0.23;;;6.80;99.90;;;;;;5071808;28;20204;-84
2020/12/17 02:13:11;;;;;;;0.70;0.57;;;6.70;99.90;;;;;;5071575;28;20689;-83
2020/12/17 02:15:36;;;;;;;0.30;0.30;;;6.60;99.90;;;;;;5070133;28;20219;-84
2020/12/17 02:18:02;;;;;;;0.60;0.50;;;6.60;99.90;;;;;;5061443;28;20223;-83
2020/12/17 02:20:28;;;;;;;0.40;0.40;;;6.80;99.90;;;;;;5065318;28;20212;-84
2020/12/17 02:22:53;;;;;;;2.30;1.17;;;7.00;99.90;;;;;;5077902;28;20201;-84
2020/12/17 02:25:19;;;;;;;0.83;0.60;;;6.90;99.90;;;;;;5071261;28;20187;-84
2020/12/17 02:27:45;;;;;;;0.97;0.87;;;6.80;99.90;;;;;;5075043;28;20213;-84
2020/12/17 02:30:12;;;;;;;0.90;0.90;;;6.90;99.90;;;;;;5072520;28;20181;-85
2020/12/17 02:32:38;;;;;;;0.70;0.40;;;7.00;99.90;;;;;;5075299;28;20246;-83
2020/12/17 02:35:08;;;;;;;3.00;0.93;;;7.00;99.90;;;;;;5067240;28;20231;-84
2020/12/17 02:37:34;;;;;;;1.63;0.83;;;7.00;99.90;;;;;;5061753;28;20234;-83
2020/12/17 02:40:00;;;;;;;0.30;0.30;;;7.10;99.90;;;;;;5072537;28;20195;-84
2020/12/17 02:42:26;;;;;;;3.53;0.47;;;7.20;99.90;;;;;;5070093;28;20210;-84
2020/12/17 02:44:52;;;;;;;0.77;0.77;;;7.40;99.90;;;;;;5070459;28;20200;-83
2020/12/17 02:47:17;;;;;;;0.30;0.30;;;7.20;99.90;;;;;;5074944;28;20272;-82
2020/12/17 02:49:43;;;;;;;2.30;1.17;;;6.80;99.90;;;;;;5071983;28;20271;-83
2020/12/17 02:52:09;;;;;;;1.20;0.50;;;6.70;99.90;;;;;;5071765;28;20206;-84
2020/12/17 02:54:35;;;;;;;1.10;0.53;;;6.80;99.90;;;;;;5073930;28;20223;-83
2020/12/17 02:57:00;;;;;;;0.40;0.40;;;6.80;99.90;;;;;;5075200;28;20188;-83
2020/12/17 02:59:26;;;;;;;0.73;0.40;;;6.70;99.90;;;;;;5074113;28;20202;-85
2020/12/17 03:01:51;;;;;;;0.37;0.23;;;6.70;99.90;;;;;;5072734;28;20224;-83
2020/12/17 03:04:17;;;;;;;0.70;0.60;;;6.60;99.90;;;;;;5072482;28;20272;-83
2020/12/17 03:06:43;;;;;;;2.13;0.63;;;6.50;99.90;;;;;;5074424;28;20665;-84
2020/12/17 03:09:08;;;;;;;0.30;0.30;;;6.60;99.90;;;;;;5073932;28;20310;-83
2020/12/17 03:11:34;;;;;;;1.07;0.67;;;6.50;99.90;;;;;;5073322;28;20209;-83
2020/12/17 03:13:59;;;;;;;0.67;0.67;;;6.40;99.90;;;;;;5072677;28;20182;-83
2020/12/17 03:16:25;;;;;;;0.30;0.30;;;6.30;99.90;;;;;;5074400;28;20220;-83
2020/12/17 03:18:50;;;;;;;0.87;0.53;;;6.40;99.90;;;;;;5070152;28;20190;-84
2020/12/17 03:21:16;;;;;;;0.20;0.20;;;6.50;99.90;;;;;;5072281;28;20266;-84
2020/12/17 03:23:42;;;;;;;0.53;0.53;;;6.60;99.90;;;;;;5073769;28;20187;-83
2020/12/17 03:26:08;;;;;;;1.30;1.20;;;6.60;99.90;;;;;;5073292;28;20191;-84
2020/12/17 03:28:34;;;;;;;1.90;1.07;;;6.40;99.90;;;;;;5072560;28;20270;-83
2020/12/17 03:30:59;;;;;;;0.70;0.70;;;6.40;99.90;;;;;;5064593;28;20631;-84
2020/12/17 03:33:25;;;;;;;0.30;0.30;;;6.20;99.90;;;;;;5071381;28;20245;-83
2020/12/17 03:35:51;;;;;;;1.50;0.30;;;6.20;99.90;;;;;;5073276;28;20602;-83
2020/12/17 03:38:17;;;;;;;0.33;0.33;;;6.30;99.90;;;;;;5072776;28;20211;-84
2020/12/17 03:40:43;;;;;;;0.70;0.70;;;6.40;99.90;;;;;;5073520;28;20234;-83
2020/12/17 03:43:08;;;;;;;1.17;0.87;;;6.30;99.90;;;;;;5073474;28;20220;-83
2020/12/17 03:45:34;;;;;;;1.63;0.93;;;6.30;99.90;;;;;;5073680;28;20195;-84
2020/12/17 03:47:59;;;;;;;0.43;0.43;;;6.20;99.90;;;;;;5073496;28;20201;-83
2020/12/17 03:50:25;;;;;;;0.90;0.87;;;6.20;99.90;;;;;;5073120;28;20183;-84
2020/12/17 03:52:51;;;;;;;0.30;0.30;;;6.40;99.90;;;;;;5070954;28;20213;-84
2020/12/17 03:55:17;;;;;;;0.50;0.50;;;6.70;99.90;;;;;;5071053;28;20191;-84
2020/12/17 03:57:42;;;;;;;3.20;0.73;;;6.50;99.90;;;;;;5068160;28;20918;-84
2020/12/17 04:00:08;;;;;;;0.40;0.40;;;6.40;99.90;;;;;;5072579;28;20188;-84
2020/12/17 04:02:34;;;;;;;0.70;0.70;;;6.50;99.90;;;;;;5073087;28;20207;-84
2020/12/17 04:04:59;;;;;;;0.47;0.47;;;6.30;99.90;;;;;;5073081;28;20250;-84
2020/12/17 04:07:25;;;;;;;0.93;0.93;;;6.40;99.90;;;;;;5073998;28;20245;-84
2020/12/17 04:09:51;;;;;;;1.13;0.93;;;6.40;99.90;;;;;;5071908;28;20184;-83
2020/12/17 04:12:16;;;;;;;0.40;0.40;;;6.40;99.90;;;;;;5072484;28;20696;-83
2020/12/17 04:14:42;;;;;;;0.90;0.73;;;6.40;99.90;;;;;;5071024;28;20558;-84
2020/12/17 04:17:08;;;;;;;0.60;0.60;;;6.40;99.90;;;;;;5071422;28;20182;-84
2020/12/17 04:19:33;;;;;;;1.23;0.70;;;6.40;99.90;;;;;;5066627;28;20198;-84
2020/12/17 04:21:59;;;;;;;0.83;0.83;;;6.40;99.90;;;;;;5072776;28;20213;-84
2020/12/17 04:24:24;;;;;;;0.40;0.40;;;6.30;99.90;;;;;;5072070;28;20195;-84
2020/12/17 04:26:51;;;;;;;0.90;0.70;;;6.40;99.90;;;;;;5070862;28;20207;-83
2020/12/17 04:29:18;;;;;;;0.93;0.93;;;6.30;99.90;;;;;;5065811;28;20185;-83
2020/12/17 04:31:44;;;;;;;0.53;0.53;;;6.20;99.90;;;;;;5066886;28;20204;-83
2020/12/17 04:34:09;;;;;;;1.93;0.83;;;6.40;99.90;;;;;;5070820;28;20688;-84
2020/12/17 04:36:35;;;;;;;1.57;1.47;;;6.20;99.90;;;;;;5072445;28;20184;-83
2020/12/17 04:39:01;;;;;;;1.13;0.70;;;6.20;99.90;;;;;;5072920;28;20652;-83
2020/12/17 04:41:29;;;;;;;1.50;1.03;;;6.30;99.90;;;;;;5072254;28;20206;-83
2020/12/17 04:43:55;;;;;;;0.90;0.77;;;6.60;99.90;;;;;;5064082;28;20186;-84
2020/12/17 04:46:21;;;;;;;1.97;1.17;;;6.60;99.90;;;;;;5072055;28;20277;-84
2020/12/17 04:48:50;;;;;;;0.77;0.77;;;6.40;99.90;;;;;;5070834;28;20645;-83
2020/12/17 04:51:17;;;;;;;2.53;1.53;;;6.40;99.90;;;;;;5070462;28;20213;-84
2020/12/17 04:53:45;;;;;;;1.20;1.10;;;6.20;99.90;;;;;;5071135;28;20616;-83
2020/12/17 04:56:14;;;;;;;0.30;0.30;;;6.20;99.90;;;;;;5071174;28;20177;-84
2020/12/17 04:58:45;;;;;;;0.40;0.37;;;6.40;99.90;;;;;;5071066;28;20189;-81
2020/12/17 05:01:17;;;;;;;0.83;0.77;;;6.40;99.90;;;;;;5072077;28;20676;-82
2020/12/17 05:03:48;;;;;;;0.93;0.93;;;6.40;99.90;;;;;;5070457;28;20634;-81
2020/12/17 05:06:24;;;;;;;1.03;0.93;;;6.30;99.90;;;;;;5072347;28;20690;-81
2020/12/17 05:08:50;;;;;;;0.73;0.73;;;6.50;99.90;;;;;;5072204;28;20195;-81
2020/12/17 05:11:16;;;;;;;0.57;0.53;;;6.40;99.90;;;;;;5070890;28;20676;-81
2020/12/17 05:13:41;;;;;;;0.63;0.63;;;6.50;99.90;;;;;;5069157;28;20185;-81
2020/12/17 05:16:07;;;;;;;0.30;0.30;;;6.60;99.90;;;;;;5058329;28;20188;-81
2020/12/17 05:18:32;;;;;;;1.57;1.23;;;6.50;99.90;;;;;;5063941;28;20207;-80
2020/12/17 05:21:00;;;;;;;1.60;0.60;;;6.20;99.90;;;;;;5065188;28;20209;-81
2020/12/17 05:23:26;;;;;;;0.30;0.30;;;6.20;99.90;;;;;;5072845;28;20183;-80
2020/12/17 05:25:52;;;;;;;0.50;0.50;;;6.40;99.90;;;;;;5068784;28;20199;-81
2020/12/17 05:28:18;;;;;;;0.60;0.60;;;6.50;99.90;;;;;;5071499;28;20207;-81
2020/12/17 05:30:44;;;;;;;0.57;0.53;;;6.70;99.90;;;;;;5066113;28;20635;-80
2020/12/17 05:33:09;;;;;;;2.00;0.50;;;7.00;99.90;;;;;;5067935;28;20208;-80
2020/12/17 05:35:37;;;;;;;1.57;1.27;;;6.60;99.90;;;;;;5068578;28;20189;-80
2020/12/17 05:38:04;;;;;;;2.83;0.57;;;6.50;99.90;;;;;;5069007;28;22164;-81
2020/12/17 05:40:38;;;;;;;1.27;0.30;;;6.60;99.90;;;;;;5067337;28;20189;-80
2020/12/17 05:43:04;;;;;;;0.90;0.90;;;6.70;99.90;;;;;;5064984;28;20204;-80
2020/12/17 05:45:30;;;;;;;1.43;1.33;;;6.60;99.90;;;;;;5068758;28;20184;-81
2020/12/17 05:48:16;;;;;;;0.57;0.57;;;6.60;99.90;;;;;;5071299;28;20202;-81
2020/12/17 05:50:51;;;;;;;1.77;1.40;;;6.90;99.90;;;;;;5069851;28;20185;-80
2020/12/17 05:53:17;;;;;;;1.30;0.87;;;6.70;99.90;;;;;;5070308;28;20237;-81
2020/12/17 05:55:43;;;;;;;0.73;0.73;;;6.70;99.90;;;;;;5068684;28;20186;-81
2020/12/17 05:58:10;;;;;;;1.37;0.63;;;6.70;99.90;;;;;;5069940;28;20219;-81
2020/12/17 06:00:36;;;;;;;0.63;0.63;;;6.80;99.90;;;;;;5068481;28;20649;-81
2020/12/17 06:03:02;;;;;;;0.40;0.40;;;6.80;99.90;;;;;;5069186;28;20212;-81
2020/12/17 06:05:29;;;;;;;0.87;0.73;;;7.00;99.90;;;;;;5069481;28;20199;-81
2020/12/17 06:07:59;;;;;;;0.40;0.40;;;7.10;99.90;;;;;;5068519;28;20212;-81
2020/12/17 06:10:30;;;;;;;1.80;0.97;;;6.90;99.90;;;;;;5071309;28;20269;-81
2020/12/17 06:13:02;;;;;;;0.53;0.47;;;6.80;99.90;;;;;;5068931;28;20266;-81
2020/12/17 06:15:30;;;;;;;0.80;0.50;;;6.80;99.90;;;;;;5066954;28;20192;-81
2020/12/17 06:18:00;;;;;;;1.40;0.87;;;7.00;99.90;;;;;;5068643;28;20197;-82
2020/12/17 06:20:27;;;;;;;0.80;0.80;;;6.90;99.90;;;;;;5066780;28;20574;-81
2020/12/17 06:23:01;;;;;;;0.30;0.30;;;6.80;99.90;;;;;;5071385;28;20647;-81
2020/12/17 06:25:30;;;;;;;1.10;0.53;;;6.90;99.90;;;;;;5084754;28;20668;-82
2020/12/17 06:27:56;;;;;;;0.43;0.43;;;6.90;99.90;;;;;;5068033;28;20205;-82
2020/12/17 06:30:24;;;;;;;1.50;0.90;;;6.90;99.90;;;;;;5067075;28;20656;-82
2020/12/17 06:32:53;;;;;;;1.20;1.20;;;6.80;99.90;;;;;;5069557;28;20207;-82
2020/12/17 06:35:28;;;;;;;0.70;0.70;;;6.70;99.90;;;;;;5068261;28;20556;-82
2020/12/17 06:37:55;;;;;;;2.00;0.70;;;6.70;99.90;;;;;;5068974;28;20176;-80
2020/12/17 06:40:25;;;;;;;0.80;0.80;;;6.70;99.90;;;;;;5070166;28;20181;-81
2020/12/17 06:42:51;;;;;;;0.87;0.83;;;6.60;99.90;;;;;;5068025;28;20724;-82
2020/12/17 06:45:30;;;;;;;0.50;0.50;;;6.60;99.90;;;;;;5070862;28;20238;-81
2020/12/17 06:47:56;;;;;;;0.47;0.47;;;6.90;99.90;;;;;;5083516;28;20212;-81
2020/12/17 06:50:30;;;;;;;0.40;0.40;;;6.90;99.90;;;;;;5067931;28;20653;-79
2020/12/17 06:53:05;;;;;;;0.33;0.33;;;7.10;99.90;;;;;;5065489;28;20201;-79
2020/12/17 06:55:45;;;;;;;0.77;0.30;;;7.30;99.90;;;;;;5066005;28;20177;-81
2020/12/17 06:58:25;;;;;;;1.13;0.50;;;7.40;99.90;;;;;;5067431;28;20221;-81
2020/12/17 07:00:53;;;;;;;0.63;0.60;;;7.50;99.90;;;;;;5066906;28;20188;-82
2020/12/17 07:03:47;;;;;;;0.50;0.50;;;7.20;99.90;;;;;;5067429;28;20189;-82
2020/12/17 07:06:14;;;;;;;0.80;0.80;;;7.10;99.90;;;;;;5060131;28;20736;-82
2020/12/17 07:08:41;;;;;;;2.10;1.20;;;7.10;99.90;;;;;;5057674;28;20185;-82
2020/12/17 07:11:07;;;;;;;0.50;0.50;;;7.10;99.90;;;;;;5066334;28;20235;-81
2020/12/17 07:13:52;;;;;;;0.67;0.63;;;7.20;99.90;;;;;;5063377;28;20209;-82
2020/12/17 07:16:19;;;;;;;0.47;0.47;;;7.20;99.90;;;;;;5071911;28;20264;-81
2020/12/17 07:18:44;;;;;;;0.50;0.50;;;7.30;99.90;;;;;;5067265;28;20178;-82
2020/12/17 07:21:10;;;;;;;1.40;1.27;;;7.40;99.90;;;;;;5068387;28;20187;-80
2020/12/17 07:23:40;;;;;;;0.50;0.50;;;7.40;99.90;;;;;;5071709;28;20656;-82
2020/12/17 07:26:08;;;;;;;0.10;0.10;;;7.60;99.90;;;;;;5070395;28;20178;-81
2020/12/17 07:28:35;;;;;;;0.50;0.50;;;7.60;99.90;;;;;;5069838;28;20209;-82
2020/12/17 07:31:00;;;;;;;2.87;0.50;;;7.70;99.90;;;;;;5065623;28;20652;-81
2020/12/17 07:33:38;;;;;;;0.43;0.30;;;7.70;99.90;;;;;;5067611;28;20189;-82
2020/12/17 07:36:05;;;;;;;1.10;1.10;;;7.70;99.90;;;;;;5068039;28;20180;-79
2020/12/17 07:38:30;;;;;;;0.43;0.33;;;7.70;99.90;;;;;;5069406;28;20195;-81
2020/12/17 07:40:56;;;;;;;0.20;0.20;;;7.70;99.90;;;;;;5065707;28;20188;-82
2020/12/17 07:43:24;;;;;;;2.83;1.10;;;7.80;99.90;;;;;;5072685;28;20188;-82
2020/12/17 07:45:57;;;;;;;1.40;1.30;;;7.60;99.90;;;;;;5070348;28;20301;-81
2020/12/17 07:48:42;;;;;;;0.93;0.40;;;7.30;99.90;;;;;;5067314;28;20695;-82
2020/12/17 07:51:29;;;;;;;0.93;0.50;;;7.20;99.90;;;;;;5075437;28;20173;-82
2020/12/17 07:53:56;;;;;;;0.50;0.50;;;7.00;99.90;;;;;;5067615;28;20184;-81
2020/12/17 07:56:22;;;;;;;4.23;0.97;;;7.10;99.90;;;;;;5067347;28;20262;-79
2020/12/17 07:58:49;;;;;;;0.57;0.57;;;7.00;99.90;;;;;;5072785;28;20277;-80
2020/12/17 08:01:15;;;;;;;2.13;1.37;;;7.00;99.90;;;;;;5072215;28;20573;-80
2020/12/17 08:03:48;;;;;;;3.13;0.83;;;7.10;99.90;;;;;;5073619;28;20186;-81
2020/12/17 08:06:19;;;;;;;3.60;0.60;;;7.00;99.90;;;;;;5071648;28;20189;-79
2020/12/17 08:08:45;;;;;;;0.23;0.23;;;7.00;99.90;;;;;;5071349;28;20189;-81
2020/12/17 08:11:11;;;;;;;1.10;0.60;;;7.10;99.90;;;;;;5073004;28;20189;-80
2020/12/17 08:13:37;;;;;;;1.17;1.07;;;7.10;99.90;;;;;;5071708;28;20276;-81
2020/12/17 08:16:04;;;;;;;0.93;0.83;;;6.90;99.90;;;;;;5072870;28;20185;-80
2020/12/17 08:18:35;;;;;;;1.57;1.47;;;6.80;99.90;;;;;;5072384;28;20194;-80
2020/12/17 08:21:02;;;;;;;0.83;0.83;;;6.60;99.90;;;;;;5078124;28;20208;-80
2020/12/17 08:23:29;;;;;;;2.50;1.20;;;6.80;99.90;;;;;;5078792;28;20196;-82
2020/12/17 08:25:56;;;;;;;0.70;0.70;;;6.80;99.90;;;;;;5073257;28;20188;-80
2020/12/17 08:28:22;;;;;;;0.57;0.53;;;7.00;99.90;;;;;;5072147;28;20219;-78
2020/12/17 08:30:48;;;;;;;0.93;0.40;;;7.00;99.90;;;;;;5071393;28;20188;-80
2020/12/17 08:33:13;;;;;;;1.13;0.60;;;7.00;99.90;;;;;;5073965;28;20211;-80
2020/12/17 08:35:39;;;;;;;0.50;0.50;;;7.10;99.90;;;;;;5071574;28;20617;-80
2020/12/17 08:38:10;;;;;;;0.53;0.40;;;7.30;99.90;;;;;;5070455;28;20674;-80
2020/12/17 08:40:42;;;;;;;0.83;0.83;;;7.30;99.90;;;;;;5072055;28;20185;-80
2020/12/17 08:43:11;;;;;;;0.30;0.30;;;7.10;99.90;;;;;;5071127;28;20347;-79
2020/12/17 08:45:40;;;;;;;0.73;0.43;;;7.20;99.90;;;;;;5071557;28;20656;-80
2020/12/17 08:48:15;;;;;;;0.70;0.50;;;7.30;99.90;;;;;;5072433;28;20559;-80
2020/12/17 08:50:43;;;;;;;1.23;1.13;;;7.50;99.90;;;;;;5071183;28;20206;-80
2020/12/17 08:53:30;;;;;;;1.27;0.83;;;7.40;99.90;;;;;;5071708;28;20295;-80
2020/12/17 08:56:05;;;;;;;1.03;0.80;;;7.50;99.90;;;;;;5072179;28;20181;-80
2020/12/17 08:58:31;;;;;;;0.63;0.53;;;7.30;99.90;;;;;;5070573;28;20184;-80
2020/12/17 09:00:57;;;;;;;0.50;0.40;;;7.00;99.90;;;;;;5072522;28;20242;-78
2020/12/17 09:03:25;;;;;;;0.83;0.73;;;6.90;99.90;;;;;;5071542;28;20181;-79
2020/12/17 09:06:04;;;;;;;1.30;0.73;;;7.00;99.90;;;;;;5071266;28;20201;-80
2020/12/17 09:08:30;;;;;;;0.47;0.47;;;7.00;99.90;;;;;;5072092;28;20236;-80
2020/12/17 09:10:56;;;;;;;0.43;0.40;;;7.20;99.90;;;;;;5082382;28;20184;-80
2020/12/17 09:13:22;;;;;;;0.93;0.60;;;7.30;99.90;;;;;;5070031;28;20200;-80
2020/12/17 09:16:08;;;;;;;0.83;0.80;;;7.10;99.90;;;;;;5070483;28;20652;-80
2020/12/17 09:18:33;;;;;;;3.60;1.20;;;6.80;99.90;;;;;;5071283;28;20189;-80
2020/12/17 09:21:10;;;;;;;0.83;0.70;;;6.70;99.90;;;;;;5069605;28;20299;-80
2020/12/17 09:23:37;;;;;;;0.67;0.67;;;6.80;99.90;;;;;;5075816;28;20264;-79
2020/12/17 09:26:15;;;;;;;0.97;0.97;;;7.10;99.90;;;;;;5071583;28;20199;-79
2020/12/17 09:29:13;;;;;;;0.57;0.57;;;7.20;99.90;;;;;;5071335;28;20212;-79
2020/12/17 09:31:39;;;;;;;0.83;0.57;;;7.30;99.90;;;;;;5025946;28;20727;-80
2020/12/17 09:34:13;;;;;;;0.40;0.40;;;7.30;99.90;;;;;;5069398;28;20177;-80
2020/12/17 09:36:41;;;;;;;0.50;0.50;;;7.10;99.90;;;;;;5069211;28;20262;-80
2020/12/17 09:39:15;;;;;;;0.53;0.50;;;7.40;99.90;;;;;;5064451;28;20207;-80
2020/12/17 09:41:55;;;;;;;1.10;1.10;;;7.60;99.90;;;;;;5064939;28;20805;-81
2020/12/17 09:44:34;;;;;;;0.30;0.30;;;7.60;99.90;;;;;;5063748;28;20178;-84
2020/12/17 09:47:01;;;;;;;0.97;0.93;;;7.50;99.90;;;;;;5064825;28;20205;-80
2020/12/17 09:49:33;;;;;;;0.43;0.43;;;7.60;99.90;;;;;;5066615;28;20280;-79
2020/12/17 09:52:04;;;;;;;0.60;0.60;;;7.60;99.90;;;;;;5062858;28;20715;-80
2020/12/17 09:54:30;;;;;;;1.00;0.40;;;7.60;99.90;;;;;;5068800;28;20198;-79
2020/12/17 09:57:33;;;;;;;0.87;0.80;;;7.60;99.90;;;;;;5066338;28;20196;-79
2020/12/17 09:59:59;;;;;;;0.97;0.50;;;7.70;99.90;;;;;;5031664;28;20197;-79
2020/12/17 10:02:24;;;;;;;0.20;0.20;;;7.90;99.90;;;;;;5043626;28;20211;-81
2020/12/17 10:04:50;;;;;;;0.57;0.57;;;8.20;99.90;;;;;;5046451;28;20203;-81
2020/12/17 10:07:16;;;;;;;0.50;0.50;;;8.30;99.90;;;;;;5054382;28;20200;-78
2020/12/17 10:09:41;;;;;;;1.50;0.90;;;8.50;99.90;;;;;;5060588;28;20190;-79
2020/12/17 10:12:07;;;;;;;0.47;0.47;;;8.60;99.90;;;;;;5065851;28;20209;-80
2020/12/17 10:14:32;;;;;;;1.20;0.57;;;8.60;99.90;;;;;;5062544;28;20204;-80
2020/12/17 10:17:00;;;;;;;0.50;0.50;;;8.70;99.90;;;;;;5062500;28;20223;-80
2020/12/17 10:19:27;;;;;;;1.27;1.03;;;8.80;99.90;;;;;;5067638;28;20197;-78
2020/12/17 10:21:53;;;;;;;3.43;1.13;;;9.00;99.90;;;;;;5061562;28;20217;-81
2020/12/17 10:24:19;;;;;;;1.30;0.70;;;8.90;99.90;;;;;;5068103;28;20193;-80
2020/12/17 10:26:44;;;;;;;0.87;0.73;;;9.00;99.90;;;;;;5067089;28;20206;-81
2020/12/17 10:29:10;;;;;;;1.17;1.07;;;9.10;99.90;;;;;;5064730;28;20272;-81
2020/12/17 10:31:36;;;;;;;1.00;1.00;;;9.10;99.90;;;;;;5067335;28;20200;-80
2020/12/17 10:34:02;;;;;;;2.27;0.70;;;9.20;99.90;;;;;;5066117;28;20194;-80
2020/12/17 10:36:28;;;;;;;0.57;0.57;;;9.10;99.90;;;;;;5068628;28;20657;-80
2020/12/17 10:38:53;;;;;;;3.33;1.17;;;9.20;99.90;;;;;;5067927;28;20177;-80
2020/12/17 10:41:26;;;;;;;1.17;0.70;;;9.10;99.90;;;;;;5066536;28;20283;-80
2020/12/17 10:43:53;;;;;;;1.70;0.70;;;9.30;99.90;;;;;;5061277;28;20190;-81
2020/12/17 10:46:18;;;;;;;0.50;0.50;;;9.30;99.90;;;;;;5069184;28;20648;-80
2020/12/17 10:48:44;;;;;;;0.20;0.20;;;9.30;99.90;;;;;;5068308;28;20297;-80
2020/12/17 10:51:13;;;;;;;2.30;0.93;;;9.40;99.90;;;;;;5065450;28;20184;-80
2020/12/17 10:53:38;;;;;;;1.70;1.00;;;9.30;99.90;;;;;;5071299;28;20178;-80
2020/12/17 10:56:07;;;;;;;0.93;0.93;;;8.70;99.90;;;;;;5070068;28;20204;-80
2020/12/17 10:58:32;;;;;;;2.37;1.00;;;8.40;99.90;;;;;;5072791;28;20202;-80
2020/12/17 11:00:58;;;;;;;0.40;0.40;;;8.60;99.90;;;;;;5071743;28;20666;-79
2020/12/17 11:03:23;;;;;;;1.10;1.00;;;8.50;99.90;;;;;;5072080;28;20192;-81
2020/12/17 11:05:49;;;;;;;0.83;0.27;;;8.60;99.90;;;;;;5063481;28;20197;-81
2020/12/17 11:08:14;;;;;;;1.37;0.70;;;8.80;99.90;;;;;;5066393;28;20216;-81
2020/12/17 11:10:40;;;;;;;1.77;0.60;;;9.00;99.90;;;;;;5071871;28;20182;-79
2020/12/17 11:13:06;;;;;;;1.13;0.70;;;8.60;99.90;;;;;;5069046;28;20205;-81
2020/12/17 11:15:31;;;;;;;1.70;0.87;;;8.40;99.90;;;;;;5063216;28;20176;-79
2020/12/17 11:17:57;;;;;;;0.97;0.97;;;8.30;99.90;;;;;;5063313;28;20763;-79
2020/12/17 11:20:23;;;;;;;1.07;1.00;;;8.60;99.90;;;;;;5065492;28;20670;-81
2020/12/17 11:22:49;;;;;;;0.37;0.37;;;8.90;99.90;;;;;;5065694;28;20201;-78
2020/12/17 11:25:15;;;;;;;1.70;1.60;;;9.10;99.90;;;;;;5066548;28;20234;-81
2020/12/17 11:27:40;;;;;;;2.10;0.80;;;9.30;99.90;;;;;;5069380;28;20201;-80
2020/12/17 11:30:09;;;;;;;2.10;2.00;;;9.20;99.90;;;;;;5072895;28;20227;-80
2020/12/17 11:32:35;;;;;;;0.73;0.73;;;9.20;99.90;;;;;;5065612;28;20556;-80
2020/12/17 11:35:06;;;;;;;3.63;1.17;;;9.10;99.90;;;;;;5062901;28;20238;-80
2020/12/17 11:37:32;;;;;;;1.97;1.50;;;8.70;99.90;;;;;;5071915;28;20200;-80
2020/12/17 11:39:58;;;;;;;0.93;0.93;;;8.80;99.90;;;;;;5065172;28;20189;-80
2020/12/17 11:42:23;;;;;;;0.77;0.57;;;9.00;99.90;;;;;;5069988;28;20627;-79
2020/12/17 11:44:49;;;;;;;1.50;1.40;;;8.90;99.90;;;;;;5076931;28;20688;-83
2020/12/17 11:47:15;;;;;;;1.43;0.80;;;8.50;99.90;;;;;;5073889;28;20237;-82
2020/12/17 11:49:42;;;;;;;0.83;0.83;;;8.50;99.90;;;;;;5068288;28;20178;-82
2020/12/17 11:52:08;;;;;;;1.00;0.90;;;8.60;99.90;;;;;;5069926;28;20210;-81
2020/12/17 11:54:33;;;;;;;1.90;1.43;;;8.70;99.90;;;;;;5071706;28;20555;-82
2020/12/17 11:56:59;;;;;;;0.40;0.40;;;8.80;99.90;;;;;;5076114;28;20196;-84
2020/12/17 11:59:27;;;;;;;0.83;0.83;;;8.80;99.90;;;;;;5066417;28;20573;-83
2020/12/17 12:01:52;;;;;;;0.73;0.73;;;8.80;99.90;;;;;;5060111;28;20291;-82
2020/12/17 12:04:18;;;;;;;0.37;0.37;;;9.10;99.90;;;;;;5070443;28;20260;-82
2020/12/17 12:06:47;;;;;;;0.77;0.50;;;9.20;99.90;;;;;;5069261;28;20178;-82
2020/12/17 12:09:18;;;;;;;0.57;0.50;;;9.30;99.90;;;;;;5068564;28;20278;-82
2020/12/17 12:11:47;;;;;;;0.73;0.70;;;9.40;99.90;;;;;;5067487;28;20575;-82
2020/12/17 12:14:13;;;;;;;0.90;0.90;;;9.50;99.90;;;;;;5069629;28;20178;-82
2020/12/17 12:16:39;;;;;;;0.47;0.47;;;9.60;99.90;;;;;;5071111;28;20187;-83
2020/12/17 12:19:05;;;;;;;0.50;0.50;;;9.60;99.90;;;;;;5067226;28;20193;-83
2020/12/17 12:21:31;;;;;;;0.60;0.40;;;9.80;99.90;;;;;;5069626;28;20274;-81
2020/12/17 12:23:56;;;;;;;1.97;0.63;;;9.80;99.90;;;;;;5072032;28;20640;-81
2020/12/17 12:26:22;;;;;;;1.60;0.30;;;9.80;99.90;;;;;;5071000;28;20258;-81
2020/12/17 12:28:48;;;;;;;0.60;0.60;;;9.90;99.90;;;;;;5069384;28;20546;-81
2020/12/17 12:31:14;;;;;;;0.80;0.63;;;9.90;99.90;;;;;;5062858;28;20927;-81
2020/12/17 12:33:40;;;;;;;1.00;1.00;;;10.00;99.90;;;;;;5067457;28;20205;-80
2020/12/17 12:36:06;;;;;;;0.50;0.50;;;10.00;99.90;;;;;;5069858;28;20554;-80
2020/12/17 12:38:32;;;;;;;0.63;0.50;;;10.00;99.90;;;;;;5065436;28;20188;-80
2020/12/17 12:40:57;;;;;;;0.83;0.73;;;10.10;99.90;;;;;;5072445;28;20197;-81
2020/12/17 12:43:23;;;;;;;0.83;0.40;;;10.10;99.90;;;;;;5070599;28;20192;-81
2020/12/17 12:45:51;;;;;;;0.40;0.40;;;10.10;99.90;;;;;;5070563;28;20196;-80
2020/12/17 12:48:17;;;;;;;0.57;0.40;;;10.20;99.90;;;;;;5071087;28;20201;-80
2020/12/17 12:50:47;;;;;;;0.40;0.40;;;10.20;99.90;;;;;;5070057;28;20688;-81
2020/12/17 12:53:13;;;;;;;1.83;0.90;;;10.20;99.90;;;;;;5065036;28;20207;-80
2020/12/17 12:55:38;;;;;;;0.47;0.47;;;10.10;99.90;;;;;;5069094;28;20189;-80
2020/12/17 12:58:04;;;;;;;0.90;0.90;;;10.10;99.90;;;;;;5062430;28;20199;-80
2020/12/17 13:00:30;;;;;;;0.17;0.17;;;10.20;99.90;;;;;;5058541;28;20672;-81